createdAt,value
2023-01-10T00:01:14.391Z,3.72
2023-01-10T00:03:41.263Z,3.95
2023-01-10T00:06:08.427Z,3.51
2023-01-10T00:08:35.228Z,3.28
2023-01-10T00:11:02.074Z,2.63
2023-01-10T00:13:28.861Z,2.65
2023-01-10T00:15:55.746Z,2.19
2023-01-10T00:18:23.735Z,2.44
2023-01-10T00:20:50.600Z,3.02
2023-01-10T00:23:17.526Z,2.67
2023-01-10T00:25:44.469Z,2.81
2023-01-10T00:28:11.756Z,3.47
2023-01-10T00:30:38.555Z,3.04
2023-01-10T00:33:05.406Z,2.92
2023-01-10T00:35:32.254Z,2.87
2023-01-10T00:37:59.287Z,2.85
2023-01-10T00:40:26.083Z,2.36
2023-01-10T00:42:53.095Z,2.70
2023-01-10T00:45:19.945Z,2.28
2023-01-10T00:47:46.773Z,2.84
2023-01-10T00:50:13.666Z,2.79
2023-01-10T00:52:40.577Z,2.29
2023-01-10T00:55:07.351Z,2.58
2023-01-10T00:57:34.713Z,2.98
2023-01-10T01:00:01.875Z,2.33
2023-01-10T01:02:28.766Z,2.54
2023-01-10T01:04:55.769Z,2.50
2023-01-10T01:07:22.553Z,2.32
2023-01-10T01:09:49.353Z,2.80
2023-01-10T01:12:16.296Z,3.03
2023-01-10T01:14:43.103Z,2.43
2023-01-10T01:17:10.026Z,2.63
2023-01-10T01:19:36.833Z,2.48
2023-01-10T01:22:03.650Z,3.05
2023-01-10T01:24:30.430Z,2.45
2023-01-10T01:26:57.237Z,2.68
2023-01-10T01:29:26.237Z,3.15
2023-01-10T01:31:57.090Z,2.42
2023-01-10T01:34:24.232Z,1.89
2023-01-10T01:36:51.034Z,2.59
2023-01-10T01:39:18.010Z,2.68
2023-01-10T01:41:46.860Z,2.80
2023-01-10T01:44:13.801Z,2.47
2023-01-10T01:46:40.609Z,1.73
2023-01-10T01:49:07.535Z,1.94
2023-01-10T01:51:34.362Z,2.22
2023-01-10T01:54:01.136Z,2.74
2023-01-10T01:56:28.049Z,2.48
2023-01-10T01:58:54.838Z,3.17
2023-01-10T02:01:21.762Z,3.18
2023-01-10T02:03:48.746Z,3.54
2023-01-10T02:06:15.591Z,2.24
2023-01-10T02:08:42.435Z,2.86
2023-01-10T02:11:09.640Z,3.01
2023-01-10T02:13:36.617Z,2.33
2023-01-10T02:16:03.580Z,2.70
2023-01-10T02:18:30.577Z,2.98
2023-01-10T02:20:57.574Z,2.48
2023-01-10T02:23:24.512Z,1.94
2023-01-10T02:25:51.337Z,2.29
2023-01-10T02:28:20.396Z,2.36
2023-01-10T02:30:47.471Z,2.67
2023-01-10T02:33:14.820Z,2.88
2023-01-10T02:35:41.833Z,2.57
2023-01-10T02:38:08.814Z,2.40
2023-01-10T02:40:35.700Z,2.06
2023-01-10T02:43:02.640Z,2.10
2023-01-10T02:45:29.713Z,2.08
2023-01-10T02:47:56.523Z,2.42
2023-01-10T02:50:23.334Z,2.76
2023-01-10T02:52:50.306Z,2.79
2023-01-10T02:55:17.141Z,2.64
2023-01-10T02:57:43.988Z,2.36
2023-01-10T03:00:10.830Z,2.72
2023-01-10T03:02:37.693Z,2.84
2023-01-10T03:05:04.612Z,3.11
2023-01-10T03:07:31.493Z,2.83
2023-01-10T03:09:58.690Z,2.51
2023-01-10T03:12:25.540Z,2.18
2023-01-10T03:14:52.486Z,2.22
2023-01-10T03:17:19.403Z,1.97
2023-01-10T03:19:46.315Z,2.10
2023-01-10T03:22:13.448Z,2.24
2023-01-10T03:24:40.409Z,1.85
2023-01-10T03:27:07.232Z,2.60
2023-01-10T03:29:34.070Z,2.30
2023-01-10T03:32:01.067Z,1.92
2023-01-10T03:34:27.950Z,1.93
2023-01-10T03:36:54.877Z,2.07
2023-01-10T03:39:21.706Z,1.81
2023-01-10T03:41:48.607Z,1.68
2023-01-10T03:44:15.505Z,1.75
2023-01-10T03:46:42.594Z,1.97
2023-01-10T03:49:09.378Z,2.79
2023-01-10T03:51:36.155Z,2.37
2023-01-10T03:54:03.074Z,2.54
2023-01-10T03:56:29.976Z,1.85
2023-01-10T03:58:56.749Z,1.65
2023-01-10T04:01:23.714Z,1.88
2023-01-10T04:03:50.644Z,2.20
2023-01-10T04:06:17.455Z,1.93
2023-01-10T04:08:44.360Z,1.75
2023-01-10T04:11:11.241Z,1.44
2023-01-10T04:13:38.055Z,1.86
2023-01-10T04:16:05.028Z,1.60
2023-01-10T04:18:31.843Z,2.00
2023-01-10T04:20:58.693Z,1.85
2023-01-10T04:23:25.583Z,1.92
2023-01-10T04:25:52.733Z,1.06
2023-01-10T04:28:19.521Z,1.23
2023-01-10T04:30:46.338Z,1.59
2023-01-10T04:33:13.235Z,1.91
2023-01-10T04:35:40.253Z,1.84
2023-01-10T04:38:07.078Z,1.81
2023-01-10T04:40:34.062Z,2.08
2023-01-10T04:43:02.312Z,1.22
2023-01-10T04:45:29.212Z,1.77
2023-01-10T04:47:56.494Z,2.14
2023-01-10T04:50:23.375Z,2.13
2023-01-10T04:52:50.257Z,1.26
2023-01-10T04:55:17.084Z,2.06
2023-01-10T04:57:43.980Z,1.28
2023-01-10T05:00:10.960Z,0.63
2023-01-10T05:02:38.852Z,1.65
2023-01-10T05:05:06.111Z,2.06
2023-01-10T05:07:32.843Z,2.39
2023-01-10T05:09:59.678Z,1.75
2023-01-10T05:12:26.563Z,2.15
2023-01-10T05:14:53.450Z,1.79
2023-01-10T05:17:20.281Z,1.74
2023-01-10T05:19:48.184Z,1.68
2023-01-10T05:22:14.960Z,1.28
2023-01-10T05:24:41.735Z,1.23
2023-01-10T05:27:08.635Z,1.53
2023-01-10T05:29:35.609Z,1.51
2023-01-10T05:32:02.555Z,1.47
2023-01-10T05:34:29.403Z,1.40
2023-01-10T05:36:56.418Z,1.33
2023-01-10T05:39:23.216Z,1.36
2023-01-10T05:41:50.902Z,1.70
2023-01-10T05:44:17.865Z,1.56
2023-01-10T05:46:44.754Z,1.79
2023-01-10T05:49:11.609Z,1.88
2023-01-10T05:51:38.460Z,1.26
2023-01-10T05:54:05.272Z,1.50
2023-01-10T05:56:32.118Z,1.55
2023-01-10T05:59:06.651Z,1.52
2023-01-10T06:01:36.918Z,2.09
2023-01-10T06:04:03.900Z,1.83
2023-01-10T06:06:31.117Z,1.32
2023-01-10T06:08:57.931Z,2.10
2023-01-10T06:11:24.796Z,1.63
2023-01-10T06:13:51.599Z,1.46
2023-01-10T06:16:20.829Z,1.48
2023-01-10T06:18:47.783Z,1.86
2023-01-10T06:21:15.228Z,1.88
2023-01-10T06:23:42.156Z,1.94
2023-01-10T06:26:09.010Z,2.17
2023-01-10T06:28:35.843Z,1.85
2023-01-10T06:31:02.764Z,2.05
2023-01-10T06:33:29.741Z,1.53
2023-01-10T06:35:56.550Z,1.84
2023-01-10T06:38:23.576Z,1.99
2023-01-10T06:40:50.390Z,1.62
2023-01-10T06:43:17.248Z,2.06
2023-01-10T06:45:44.098Z,2.03
2023-01-10T06:48:11.250Z,2.24
2023-01-10T06:50:38.321Z,2.31
2023-01-10T06:53:05.220Z,2.18
2023-01-10T06:55:40.627Z,2.09
2023-01-10T06:58:10.329Z,2.14
2023-01-10T07:00:37.185Z,2.09
2023-01-10T07:03:04.026Z,1.50
2023-01-10T07:05:30.973Z,1.20
2023-01-10T07:07:58.084Z,1.94
2023-01-10T07:10:25.077Z,1.34
2023-01-10T07:12:52.099Z,1.26
2023-01-10T07:15:19.090Z,1.88
2023-01-10T07:17:48.216Z,1.55
2023-01-10T07:20:15.172Z,1.97
2023-01-10T07:22:41.977Z,1.58
2023-01-10T07:25:09.033Z,1.18
2023-01-10T07:27:35.839Z,1.75
2023-01-10T07:30:02.745Z,1.80
2023-01-10T07:32:29.809Z,1.82
2023-01-10T07:34:56.658Z,1.91
2023-01-10T07:37:23.543Z,2.16
2023-01-10T07:39:50.418Z,1.80
2023-01-10T07:42:19.046Z,1.98
2023-01-10T07:44:48.024Z,2.18
2023-01-10T07:47:16.150Z,1.75
2023-01-10T07:49:42.960Z,1.97
2023-01-10T07:52:09.869Z,2.32
2023-01-10T07:54:36.725Z,1.87
2023-01-10T07:57:04.008Z,1.86
2023-01-10T07:59:30.960Z,1.95
2023-01-10T08:01:57.781Z,1.99
2023-01-10T08:04:24.712Z,2.03
2023-01-10T08:06:51.568Z,1.54
2023-01-10T08:09:18.390Z,1.80
2023-01-10T08:11:45.198Z,2.24
2023-01-10T08:14:12.113Z,2.43
2023-01-10T08:16:39.581Z,2.49
2023-01-10T08:19:07.068Z,2.21
2023-01-10T08:21:33.952Z,2.09
2023-01-10T08:24:02.141Z,2.26
2023-01-10T08:26:29.016Z,1.82
2023-01-10T08:28:55.779Z,2.24
2023-01-10T08:31:22.863Z,2.23
2023-01-10T08:33:49.776Z,2.72
2023-01-10T08:36:16.709Z,2.18
2023-01-10T08:38:44.122Z,1.97
2023-01-10T08:41:10.950Z,2.26
2023-01-10T08:43:38.060Z,1.94
2023-01-10T08:46:04.828Z,2.12
2023-01-10T08:48:32.182Z,2.17
2023-01-10T08:50:59.201Z,2.55
2023-01-10T08:53:26.088Z,2.87
2023-01-10T08:55:53.418Z,2.92
2023-01-10T08:58:20.310Z,2.15
2023-01-10T09:00:47.088Z,2.45
2023-01-10T09:03:14.214Z,2.49
2023-01-10T09:05:41.263Z,2.48
2023-01-10T09:08:08.201Z,2.83
2023-01-10T09:10:35.081Z,2.50
2023-01-10T09:13:05.025Z,2.41
2023-01-10T09:15:32.005Z,2.24
2023-01-10T09:17:58.882Z,1.82
2023-01-10T09:20:25.736Z,1.78
2023-01-10T09:22:52.671Z,2.37
2023-01-10T09:25:19.691Z,2.23
2023-01-10T09:27:46.707Z,2.18
2023-01-10T09:30:14.154Z,2.30
2023-01-10T09:32:41.137Z,2.94
2023-01-10T09:35:08.551Z,2.06
2023-01-10T09:37:35.765Z,2.43
2023-01-10T09:40:02.738Z,2.92
2023-01-10T09:42:29.568Z,2.41
2023-01-10T09:44:56.446Z,3.10
2023-01-10T09:47:23.487Z,2.12
2023-01-10T09:49:50.398Z,2.11
2023-01-10T09:52:17.702Z,2.46
2023-01-10T09:54:44.956Z,2.73
2023-01-10T09:57:11.848Z,2.78
2023-01-10T09:59:38.666Z,2.33
2023-01-10T10:02:05.691Z,2.33
2023-01-10T10:04:32.740Z,2.40
2023-01-10T10:06:59.896Z,2.33
2023-01-10T10:09:26.700Z,2.38
2023-01-10T10:11:53.825Z,2.49
2023-01-10T10:14:20.837Z,3.10
2023-01-10T10:16:47.716Z,3.26
2023-01-10T10:19:14.735Z,3.32
2023-01-10T10:21:41.598Z,2.09
2023-01-10T10:24:08.446Z,2.50
2023-01-10T10:26:37.709Z,2.63
2023-01-10T10:29:05.343Z,2.39
2023-01-10T10:31:32.402Z,2.58
2023-01-10T10:33:59.294Z,2.17
2023-01-10T10:36:26.155Z,2.16
2023-01-10T10:38:53.030Z,2.44
2023-01-10T10:41:19.876Z,1.81
2023-01-10T10:43:46.791Z,2.18
2023-01-10T10:46:14.976Z,1.70
2023-01-10T10:48:42.328Z,2.40
2023-01-10T10:51:09.573Z,1.98
2023-01-10T10:53:36.908Z,2.76
2023-01-10T10:56:04.854Z,2.61
2023-01-10T10:58:31.663Z,2.30
2023-01-10T11:00:58.754Z,3.05
2023-01-10T11:03:25.633Z,3.12
2023-01-10T11:05:52.709Z,3.17
2023-01-10T11:08:19.632Z,3.03
2023-01-10T11:10:47.188Z,3.23
2023-01-10T11:13:14.087Z,2.68
2023-01-10T11:15:41.845Z,3.43
2023-01-10T11:18:08.646Z,3.32
2023-01-10T11:20:36.609Z,3.01
2023-01-10T11:23:03.647Z,3.80
2023-01-10T11:25:30.527Z,3.16
2023-01-10T11:27:57.398Z,3.32
2023-01-10T11:30:24.693Z,3.21
2023-01-10T11:32:53.697Z,2.66
2023-01-10T11:35:20.735Z,3.40
2023-01-10T11:37:47.814Z,3.56
2023-01-10T11:40:14.836Z,2.35
2023-01-10T11:42:41.884Z,3.10
2023-01-10T11:45:08.738Z,3.52
2023-01-10T11:47:41.706Z,3.74
2023-01-10T11:50:12.329Z,3.27
2023-01-10T11:52:40.521Z,3.80
2023-01-10T11:55:07.375Z,2.92
2023-01-10T11:57:34.173Z,2.46
2023-01-10T12:00:01.292Z,2.47
2023-01-10T12:02:28.698Z,3.39
2023-01-10T12:04:55.703Z,2.29
2023-01-10T12:07:22.638Z,3.03
2023-01-10T12:09:49.604Z,2.96
2023-01-10T12:12:16.509Z,3.38
2023-01-10T12:14:43.342Z,3.71
2023-01-10T12:17:10.566Z,3.57
2023-01-10T12:19:37.589Z,4.11
2023-01-10T12:22:04.497Z,3.35
2023-01-10T12:24:31.825Z,2.86
2023-01-10T12:26:58.649Z,2.91
2023-01-10T12:29:25.616Z,3.41
2023-01-10T12:31:52.496Z,2.58
2023-01-10T12:34:19.346Z,2.68
2023-01-10T12:36:46.542Z,3.05
2023-01-10T12:39:13.405Z,3.61
2023-01-10T12:41:40.434Z,3.41
2023-01-10T12:44:07.332Z,3.57
2023-01-10T12:47:04.837Z,4.18
2023-01-10T12:49:20.975Z,3.50
2023-01-10T12:51:48.875Z,3.59
2023-01-10T12:54:15.697Z,3.61
2023-01-10T12:56:43.082Z,4.41
2023-01-10T12:59:12.516Z,4.29
2023-01-10T13:01:39.497Z,3.54
2023-01-10T13:04:06.488Z,3.60
2023-01-10T13:06:33.419Z,3.53
2023-01-10T13:09:00.324Z,3.99
2023-01-10T13:11:27.131Z,3.26
2023-01-10T13:13:54.289Z,3.59
2023-01-10T13:16:21.157Z,3.94
2023-01-10T13:18:47.949Z,4.02
2023-01-10T13:21:14.882Z,3.23
2023-01-10T13:23:42.062Z,3.92
2023-01-10T13:26:09.241Z,3.94
2023-01-10T13:28:36.308Z,4.19
2023-01-10T13:31:03.322Z,4.03
2023-01-10T13:33:30.216Z,3.38
2023-01-10T13:35:57.114Z,3.35
2023-01-10T13:38:24.611Z,3.88
2023-01-10T13:40:51.412Z,3.02
2023-01-10T13:43:19.280Z,3.07
2023-01-10T13:45:46.362Z,2.96
2023-01-10T13:48:13.228Z,3.14
2023-01-10T13:50:40.048Z,3.44
2023-01-10T13:53:06.792Z,3.16
2023-01-10T13:55:34.784Z,3.23
2023-01-10T13:58:01.787Z,3.51
2023-01-10T14:00:28.755Z,3.81
2023-01-10T14:02:55.651Z,3.83
2023-01-10T14:05:22.546Z,3.93
2023-01-10T14:07:49.389Z,3.26
2023-01-10T14:10:16.382Z,3.81
2023-01-10T14:12:43.413Z,3.35
2023-01-10T14:15:10.201Z,3.30
2023-01-10T14:17:37.081Z,3.96
2023-01-10T14:20:04.537Z,3.61
2023-01-10T14:22:31.578Z,3.30
2023-01-10T14:24:58.509Z,3.13
2023-01-10T14:27:25.469Z,3.13
2023-01-10T14:29:52.302Z,2.85
2023-01-10T14:32:19.094Z,3.28
2023-01-10T14:34:45.895Z,3.41
2023-01-10T14:37:13.819Z,3.23
2023-01-10T14:39:40.801Z,3.59
2023-01-10T14:42:07.682Z,3.64
2023-01-10T14:44:34.593Z,3.18
2023-01-10T14:47:01.457Z,3.18
2023-01-10T14:49:28.257Z,3.41
2023-01-10T14:51:55.708Z,3.78
2023-01-10T14:54:22.502Z,3.56
2023-01-10T14:56:49.438Z,3.10
2023-01-10T14:59:16.282Z,3.41
2023-01-10T15:01:43.292Z,3.27
2023-01-10T15:04:10.150Z,2.71
2023-01-10T15:06:36.981Z,2.98
2023-01-10T15:09:03.856Z,3.08
2023-01-10T15:11:30.817Z,2.99
2023-01-10T15:13:59.881Z,2.92
2023-01-10T15:16:26.965Z,2.97
2023-01-10T15:18:53.757Z,3.16
2023-01-10T15:21:20.830Z,2.81
2023-01-10T15:23:47.981Z,2.83
2023-01-10T15:26:14.943Z,3.05
2023-01-10T15:28:42.120Z,2.53
2023-01-10T15:31:09.100Z,2.77
2023-01-10T15:33:36.072Z,3.43
2023-01-10T15:36:03.295Z,3.22
2023-01-10T15:38:30.319Z,3.34
2023-01-10T15:40:57.256Z,2.97
2023-01-10T15:43:24.422Z,3.04
2023-01-10T15:45:51.285Z,2.60
2023-01-10T15:48:18.674Z,2.99
2023-01-10T15:50:45.536Z,2.37
2023-01-10T15:53:12.831Z,2.15
2023-01-10T15:55:39.862Z,2.08
2023-01-10T15:58:06.645Z,2.60
2023-01-10T16:00:33.939Z,3.16
2023-01-10T16:03:01.003Z,1.99
2023-01-10T16:05:28.076Z,2.53
2023-01-10T16:07:55.359Z,2.65
2023-01-10T16:10:22.227Z,2.45
2023-01-10T16:12:49.113Z,2.87
2023-01-10T16:15:16.433Z,3.17
2023-01-10T16:17:43.393Z,3.28
2023-01-10T16:20:10.444Z,2.83
2023-01-10T16:22:37.352Z,2.64
2023-01-10T16:25:04.220Z,2.44
2023-01-10T16:27:31.293Z,2.67
2023-01-10T16:29:58.321Z,2.39
2023-01-10T16:32:27.663Z,2.88
2023-01-10T16:34:54.481Z,2.51
2023-01-10T16:37:21.617Z,2.85
2023-01-10T16:39:48.452Z,2.35
2023-01-10T16:42:15.405Z,2.62
2023-01-10T16:44:42.667Z,3.03
2023-01-10T16:47:09.528Z,2.92
2023-01-10T16:49:36.355Z,2.78
2023-01-10T16:52:03.431Z,2.19
2023-01-10T16:54:30.426Z,2.31
2023-01-10T16:56:57.403Z,2.39
2023-01-10T16:59:24.347Z,2.60
2023-01-10T17:01:51.329Z,2.86
2023-01-10T17:04:18.409Z,2.22
2023-01-10T17:06:45.329Z,2.96
2023-01-10T17:09:12.394Z,3.04
2023-01-10T17:11:39.330Z,3.13
2023-01-10T17:14:06.267Z,3.05
2023-01-10T17:16:33.250Z,3.25
2023-01-10T17:19:00.134Z,2.51
2023-01-10T17:21:26.929Z,2.63
2023-01-10T17:23:54.006Z,3.32
2023-01-10T17:26:20.832Z,3.04
2023-01-10T17:28:47.785Z,2.52
2023-01-10T17:31:14.827Z,2.94
2023-01-10T17:33:41.926Z,3.33
2023-01-10T17:36:09.195Z,2.66
2023-01-10T17:38:36.241Z,3.00
2023-01-10T17:41:03.030Z,2.74
2023-01-10T17:43:29.910Z,2.91
2023-01-10T17:45:57.168Z,3.14
2023-01-10T17:48:24.123Z,3.48
2023-01-10T17:50:51.119Z,3.14
2023-01-10T17:53:17.926Z,3.82
2023-01-10T17:55:44.811Z,3.91
2023-01-10T17:58:11.654Z,4.08
2023-01-10T18:00:38.498Z,3.04
2023-01-10T18:03:05.825Z,2.67
2023-01-10T18:05:33.540Z,3.04
2023-01-10T18:08:01.418Z,3.14
2023-01-10T18:10:28.892Z,2.94
2023-01-10T18:12:55.921Z,2.74
2023-01-10T18:15:23.345Z,3.14
2023-01-10T18:17:51.837Z,2.60
2023-01-10T18:20:20.071Z,2.01
2023-01-10T18:22:47.196Z,2.51
2023-01-10T18:25:14.234Z,2.78
2023-01-10T18:27:42.623Z,2.97
2023-01-10T18:30:09.620Z,2.79
2023-01-10T18:32:36.585Z,3.03
2023-01-10T18:35:05.043Z,3.02
2023-01-10T18:37:31.973Z,3.34
2023-01-10T18:39:58.881Z,3.33
2023-01-10T18:42:26.183Z,3.24
2023-01-10T18:44:53.119Z,3.23
2023-01-10T18:47:20.465Z,3.32
2023-01-10T18:49:47.430Z,2.89
2023-01-10T18:52:14.344Z,2.60
2023-01-10T18:54:41.553Z,3.28
2023-01-10T18:57:08.672Z,3.32
2023-01-10T18:59:36.140Z,3.64
2023-01-10T19:02:03.402Z,3.74
2023-01-10T19:04:30.430Z,3.39
2023-01-10T19:06:57.960Z,3.72
2023-01-10T19:09:25.291Z,4.07
2023-01-10T19:11:53.187Z,3.57
2023-01-10T19:14:20.545Z,3.51
2023-01-10T19:16:48.748Z,3.39
2023-01-10T19:19:15.870Z,3.50
2023-01-10T19:21:45.207Z,3.87
2023-01-10T19:24:13.065Z,3.50
2023-01-10T19:26:40.557Z,3.63
2023-01-10T19:29:08.265Z,3.51
2023-01-10T19:31:35.703Z,3.05
2023-01-10T19:34:02.807Z,2.81
2023-01-10T19:36:29.678Z,3.19
2023-01-10T19:38:56.549Z,2.30
2023-01-10T19:41:23.699Z,3.02
2023-01-10T19:43:51.130Z,3.42
2023-01-10T19:46:18.337Z,2.19
2023-01-10T19:48:45.410Z,2.40
2023-01-10T19:51:13.082Z,3.41
2023-01-10T19:53:39.957Z,3.62
2023-01-10T19:56:06.836Z,3.18
2023-01-10T19:58:33.687Z,3.13
2023-01-10T20:01:01.325Z,3.19
2023-01-10T20:03:28.744Z,3.34
2023-01-10T20:05:55.833Z,3.36
2023-01-10T20:08:23.015Z,3.27
2023-01-10T20:10:50.902Z,3.50
2023-01-10T20:13:17.718Z,3.69
2023-01-10T20:15:45.269Z,3.77
2023-01-10T20:18:12.191Z,3.56
2023-01-10T20:20:41.463Z,3.63
2023-01-10T20:23:08.412Z,3.68
2023-01-10T20:25:35.347Z,3.62
2023-01-10T20:28:02.246Z,3.33
2023-01-10T20:30:29.143Z,3.77
2023-01-10T20:32:56.823Z,3.94
2023-01-10T20:35:24.246Z,3.34
2023-01-10T20:37:51.030Z,3.08
2023-01-10T20:40:18.437Z,3.26
2023-01-10T20:42:45.701Z,3.18
2023-01-10T20:45:12.625Z,2.68
2023-01-10T20:47:39.566Z,2.83
2023-01-10T20:50:06.447Z,3.19
2023-01-10T20:52:33.422Z,3.24
2023-01-10T20:55:00.828Z,2.98
2023-01-10T20:57:27.912Z,2.98
2023-01-10T20:59:54.795Z,3.20
2023-01-10T21:02:22.076Z,3.53
2023-01-10T21:04:50.563Z,3.58
2023-01-10T21:07:17.564Z,3.17
2023-01-10T21:09:46.583Z,2.55
2023-01-10T21:12:22.521Z,3.01
2023-01-10T21:14:50.426Z,3.51
2023-01-10T21:17:17.649Z,3.61
2023-01-10T21:19:44.498Z,3.45
2023-01-10T21:22:11.364Z,3.22
2023-01-10T21:24:38.592Z,2.72
2023-01-10T21:27:05.909Z,3.30
2023-01-10T21:29:32.924Z,3.71
2023-01-10T21:31:59.831Z,3.67
2023-01-10T21:34:26.689Z,3.30
2023-01-10T21:36:53.543Z,3.01
2023-01-10T21:39:20.354Z,2.91
2023-01-10T21:41:47.298Z,3.06
2023-01-10T21:44:14.265Z,3.13
2023-01-10T21:46:41.224Z,3.02
2023-01-10T21:49:08.136Z,3.16
2023-01-10T21:51:34.923Z,3.68
2023-01-10T21:54:02.899Z,3.78
2023-01-10T21:56:31.779Z,3.66
2023-01-10T21:58:58.871Z,3.52
2023-01-10T22:01:26.039Z,2.84
2023-01-10T22:03:52.961Z,3.25
2023-01-10T22:06:22.208Z,3.55
2023-01-10T22:08:49.150Z,3.43
2023-01-10T22:11:15.966Z,2.63
2023-01-10T22:13:42.787Z,3.41
2023-01-10T22:16:09.654Z,3.06
2023-01-10T22:18:37.007Z,3.31
2023-01-10T22:21:03.862Z,3.65
2023-01-10T22:23:32.952Z,3.64
2023-01-10T22:25:59.776Z,2.95
2023-01-10T22:28:26.571Z,3.42
2023-01-10T22:30:53.558Z,3.56
2023-01-10T22:33:20.447Z,3.55
2023-01-10T22:35:47.373Z,3.88
2023-01-10T22:38:14.357Z,3.68
2023-01-10T22:40:41.157Z,3.78
2023-01-10T22:43:08.201Z,3.66
2023-01-10T22:45:36.236Z,3.20
2023-01-10T22:48:03.139Z,3.20
2023-01-10T22:50:30.199Z,2.90
2023-01-10T22:52:57.112Z,2.96
2023-01-10T22:55:23.975Z,2.91
2023-01-10T22:57:51.192Z,3.43
2023-01-10T23:03:02.617Z,3.13
2023-01-10T23:05:29.497Z,3.51
2023-01-10T23:07:56.295Z,3.83
2023-01-10T23:10:30.253Z,3.89
2023-01-10T23:12:57.886Z,3.94
2023-01-10T23:15:24.913Z,3.90
2023-01-10T23:17:51.666Z,3.89
2023-01-10T23:20:18.925Z,4.03
2023-01-10T23:22:46.134Z,3.28
2023-01-10T23:25:12.906Z,3.57
2023-01-10T23:27:39.677Z,3.73
2023-01-10T23:30:06.493Z,3.95
2023-01-10T23:32:33.419Z,3.94
2023-01-10T23:35:00.237Z,3.79
2023-01-10T23:37:27.171Z,3.78
2023-01-10T23:39:54.296Z,3.20
2023-01-10T23:42:21.108Z,3.49
2023-01-10T23:44:48.018Z,3.76
2023-01-10T23:47:14.985Z,4.04
2023-01-10T23:49:42.058Z,3.35
2023-01-10T23:52:08.821Z,3.70
2023-01-10T23:54:38.129Z,3.51
2023-01-10T23:57:05.200Z,3.16
2023-01-10T23:59:32.721Z,3.22
